Time;durP1;ratioP1;P1;durP2;ratioP2;P2;SDS_P1;SDS_P2;PMS_P1;PMS_P2;Temp;Humidity;BMP_temperature;BMP_pressure;BME280_temperature;BME280_humidity;BME280_pressure;Samples;Min_cycle;Max_cycle;Signal;HPM_P1;HPM_P2
2023/08/07 00:00:40;;;;;;;10.55;6.80;;;15.40;99.90;;;;;;4890652;29;20246;-61
2023/08/07 00:03:06;;;;;;;13.38;6.55;;;15.30;99.90;;;;;;4873881;29;20189;-60
2023/08/07 00:05:32;;;;;;;12.63;6.47;;;15.30;99.90;;;;;;4879234;29;20723;-59
2023/08/07 00:07:58;;;;;;;12.23;6.65;;;15.20;99.90;;;;;;4878315;29;20209;-59
2023/08/07 00:10:24;;;;;;;11.13;6.90;;;15.20;99.90;;;;;;4875920;29;20205;-59
2023/08/07 00:12:50;;;;;;;9.45;6.90;;;15.10;99.90;;;;;;4878028;29;20201;-59
2023/08/07 00:15:16;;;;;;;12.93;7.05;;;15.10;99.90;;;;;;4873840;29;20634;-59
2023/08/07 00:17:42;;;;;;;10.23;5.95;;;15.10;99.90;;;;;;4876487;29;20221;-60
2023/08/07 00:20:08;;;;;;;11.50;7.22;;;15.00;99.90;;;;;;4873684;29;20260;-60
2023/08/07 00:22:34;;;;;;;16.63;6.60;;;15.00;99.90;;;;;;4878029;29;20296;-60
2023/08/07 00:25:00;;;;;;;11.40;7.18;;;14.90;99.90;;;;;;4875901;29;20733;-59
2023/08/07 00:27:26;;;;;;;12.13;6.10;;;14.90;99.90;;;;;;4881315;29;20204;-60
2023/08/07 00:29:52;;;;;;;18.13;6.18;;;14.90;99.90;;;;;;4871520;29;20224;-59
2023/08/07 00:32:18;;;;;;;11.35;6.60;;;14.90;99.90;;;;;;4876561;29;20229;-59
2023/08/07 00:34:44;;;;;;;12.18;5.80;;;14.80;99.90;;;;;;4875627;29;20284;-60
2023/08/07 00:37:11;;;;;;;13.30;6.18;;;14.80;99.90;;;;;;4879449;29;20229;-60
2023/08/07 00:39:37;;;;;;;11.07;5.45;;;14.80;99.90;;;;;;4872858;29;20544;-60
2023/08/07 00:42:03;;;;;;;12.82;5.57;;;14.70;99.90;;;;;;4877171;29;20200;-59
2023/08/07 00:44:29;;;;;;;14.00;5.28;;;14.70;99.90;;;;;;4877074;29;20193;-61
2023/08/07 00:46:55;;;;;;;13.13;5.57;;;14.70;99.90;;;;;;4875216;29;20204;-60
2023/08/07 00:49:21;;;;;;;8.15;5.07;;;14.70;99.90;;;;;;4874701;29;20193;-59
2023/08/07 00:51:47;;;;;;;9.60;4.90;;;14.60;99.90;;;;;;4889903;29;20201;-60
2023/08/07 00:54:16;;;;;;;12.05;4.78;;;14.60;99.90;;;;;;4879051;29;20288;-60
2023/08/07 00:56:42;;;;;;;8.95;4.75;;;14.60;99.90;;;;;;4876497;29;20781;-61
2023/08/07 00:59:10;;;;;;;12.18;5.00;;;14.60;99.90;;;;;;4887728;29;20604;-60
2023/08/07 01:01:37;;;;;;;12.02;4.50;;;14.60;99.90;;;;;;4877139;29;20601;-59
2023/08/07 01:04:03;;;;;;;7.40;4.15;;;14.60;99.90;;;;;;4875529;29;20194;-59
2023/08/07 01:06:29;;;;;;;9.02;4.50;;;14.60;99.90;;;;;;4874473;29;20224;-61
2023/08/07 01:08:57;;;;;;;8.63;4.35;;;14.60;99.90;;;;;;4876491;29;20217;-61
2023/08/07 01:11:35;;;;;;;11.95;4.70;;;14.60;99.90;;;;;;4877716;29;20193;-61
2023/08/07 01:14:02;;;;;;;12.00;4.78;;;14.60;99.90;;;;;;4904616;29;20186;-62
2023/08/07 01:17:01;;;;;;;12.18;5.15;;;14.60;99.90;;;;;;4878205;29;20224;-60
2023/08/07 01:19:28;;;;;;;12.57;5.20;;;14.50;99.90;;;;;;4898603;29;20566;-61
2023/08/07 01:22:10;;;;;;;10.80;4.43;;;14.50;99.90;;;;;;4859683;29;20220;-61
2023/08/07 01:24:40;;;;;;;10.57;5.00;;;14.50;99.90;;;;;;4873480;29;20185;-61
2023/08/07 01:27:22;;;;;;;9.48;4.72;;;14.50;99.90;;;;;;4892005;29;20185;-60
2023/08/07 01:30:12;;;;;;;7.50;4.43;;;14.40;99.90;;;;;;4872799;29;20189;-60
2023/08/07 01:32:53;;;;;;;13.18;4.90;;;14.50;99.90;;;;;;4875932;29;20177;-60
2023/08/07 01:35:25;;;;;;;9.68;4.78;;;14.40;99.90;;;;;;4890952;29;20260;-59
2023/08/07 01:37:53;;;;;;;12.40;4.85;;;14.40;99.90;;;;;;4863347;29;20341;-60
2023/08/07 01:40:20;;;;;;;10.05;4.80;;;14.40;99.90;;;;;;4876015;29;20677;-58
2023/08/07 01:42:47;;;;;;;9.07;4.95;;;14.40;99.90;;;;;;4890607;29;20734;-59
2023/08/07 01:45:13;;;;;;;12.55;4.97;;;14.40;99.90;;;;;;4872969;29;20269;-60
2023/08/07 01:47:39;;;;;;;14.07;5.20;;;14.40;99.90;;;;;;4906709;29;20219;-59
2023/08/07 01:50:06;;;;;;;12.15;5.10;;;14.30;99.90;;;;;;4871152;29;20194;-60
2023/08/07 01:52:32;;;;;;;11.25;4.93;;;14.40;99.90;;;;;;4877987;29;20241;-61
2023/08/07 01:54:58;;;;;;;11.05;5.32;;;14.30;99.90;;;;;;4904503;29;20241;-60
2023/08/07 01:57:25;;;;;;;11.07;6.20;;;14.30;99.90;;;;;;4877135;29;20228;-60
2023/08/07 01:59:52;;;;;;;9.90;5.80;;;14.30;99.90;;;;;;4871114;29;20765;-60
2023/08/07 02:02:18;;;;;;;15.02;6.60;;;14.20;99.90;;;;;;4905302;29;20197;-60
2023/08/07 02:04:44;;;;;;;12.77;6.60;;;14.20;99.90;;;;;;4868918;29;20202;-60
2023/08/07 02:07:10;;;;;;;15.13;6.57;;;14.20;99.90;;;;;;4870893;29;20597;-59
2023/08/07 02:09:36;;;;;;;16.13;6.50;;;14.20;99.90;;;;;;4857851;29;20251;-59
2023/08/07 02:12:03;;;;;;;14.57;6.78;;;14.20;99.90;;;;;;4875512;29;20197;-60
2023/08/07 02:14:29;;;;;;;14.02;6.40;;;14.20;99.90;;;;;;4872645;29;20237;-61
2023/08/07 02:16:55;;;;;;;16.45;7.20;;;14.20;99.90;;;;;;4889795;29;21069;-60
2023/08/07 02:19:21;;;;;;;14.15;6.93;;;14.20;99.90;;;;;;4871551;29;20198;-59
2023/08/07 02:21:47;;;;;;;14.18;6.95;;;14.10;99.90;;;;;;4890253;29;20570;-60
2023/08/07 02:24:13;;;;;;;16.88;6.28;;;14.20;99.90;;;;;;4873426;29;20293;-60
2023/08/07 02:26:39;;;;;;;23.48;6.70;;;14.20;99.90;;;;;;4876109;29;20207;-61
2023/08/07 02:29:07;;;;;;;15.98;6.10;;;14.20;99.90;;;;;;4891399;29;20236;-61
2023/08/07 02:31:33;;;;;;;17.98;6.07;;;14.20;99.90;;;;;;4877150;29;20193;-60
2023/08/07 02:33:59;;;;;;;21.90;6.35;;;14.20;99.90;;;;;;4871612;29;20273;-60
2023/08/07 02:36:25;;;;;;;16.60;6.25;;;14.20;99.90;;;;;;4860193;29;20229;-61
2023/08/07 02:38:50;;;;;;;12.70;6.15;;;14.30;99.90;;;;;;4886878;29;20199;-60
2023/08/07 02:41:16;;;;;;;24.63;6.07;;;14.30;99.90;;;;;;4890775;29;20186;-60
2023/08/07 02:43:42;;;;;;;15.43;5.93;;;14.30;99.90;;;;;;4872184;29;20599;-61
2023/08/07 02:46:08;;;;;;;13.82;5.78;;;14.30;99.90;;;;;;4885231;29;20209;-60
2023/08/07 02:48:35;;;;;;;17.00;5.15;;;14.40;99.90;;;;;;4858036;29;20197;-61
2023/08/07 02:51:01;;;;;;;17.05;5.50;;;14.40;99.90;;;;;;4873980;29;20293;-60
2023/08/07 02:53:27;;;;;;;16.63;5.15;;;14.40;99.90;;;;;;4874562;29;20189;-60
2023/08/07 02:55:53;;;;;;;17.38;5.85;;;14.50;99.90;;;;;;4893743;29;20189;-60
2023/08/07 02:58:19;;;;;;;15.40;5.47;;;14.50;99.90;;;;;;4886601;29;20211;-61
2023/08/07 03:00:45;;;;;;;17.02;5.65;;;14.60;99.90;;;;;;4881133;29;20267;-60
2023/08/07 03:03:11;;;;;;;13.38;5.10;;;14.60;99.90;;;;;;4875413;29;20661;-61
2023/08/07 03:05:37;;;;;;;15.38;5.50;;;14.60;99.90;;;;;;4890760;29;20196;-60
2023/08/07 03:08:03;;;;;;;20.67;5.88;;;14.60;99.90;;;;;;4876982;29;20614;-59
2023/08/07 03:10:29;;;;;;;16.88;5.45;;;14.60;99.90;;;;;;4879934;29;20185;-60
2023/08/07 03:12:55;;;;;;;11.40;4.95;;;14.60;99.90;;;;;;4878116;29;20242;-60
2023/08/07 03:15:21;;;;;;;14.98;4.85;;;14.60;99.90;;;;;;4874248;29;20256;-59
2023/08/07 03:17:47;;;;;;;16.98;4.97;;;14.60;99.90;;;;;;4860688;29;20619;-60
2023/08/07 03:20:13;;;;;;;18.90;5.82;;;14.60;99.90;;;;;;4893731;29;20257;-60
2023/08/07 03:22:39;;;;;;;17.60;5.80;;;14.70;99.90;;;;;;4879688;29;20213;-61
2023/08/07 03:25:05;;;;;;;11.32;4.70;;;14.70;99.90;;;;;;4904651;29;20194;-61
2023/08/07 03:27:31;;;;;;;11.85;4.72;;;14.70;99.90;;;;;;4873290;29;20189;-61
2023/08/07 03:29:57;;;;;;;12.10;4.75;;;14.80;99.90;;;;;;4879144;29;20209;-60
2023/08/07 03:32:27;;;;;;;16.27;4.88;;;14.80;99.90;;;;;;4894733;29;20273;-61
2023/08/07 03:34:54;;;;;;;15.75;4.38;;;14.80;99.90;;;;;;4888910;29;20241;-60
2023/08/07 03:37:20;;;;;;;12.30;4.55;;;14.80;99.90;;;;;;4879165;29;20224;-60
2023/08/07 03:39:47;;;;;;;11.50;4.18;;;14.80;99.90;;;;;;4891546;29;20189;-59
2023/08/07 03:42:15;;;;;;;13.00;4.07;;;14.80;99.90;;;;;;4863395;29;20617;-59
2023/08/07 03:44:42;;;;;;;14.25;4.07;;;14.80;99.90;;;;;;4856963;29;20190;-61
2023/08/07 03:47:08;;;;;;;12.70;3.95;;;14.90;99.90;;;;;;4878874;29;20201;-60
2023/08/07 03:49:34;;;;;;;11.02;4.35;;;14.90;99.90;;;;;;4875095;29;20197;-59
2023/08/07 03:52:00;;;;;;;19.05;4.72;;;15.00;99.90;;;;;;4877492;29;20185;-60
2023/08/07 03:54:26;;;;;;;17.00;5.05;;;15.00;99.90;;;;;;4888213;29;20198;-61
2023/08/07 03:56:52;;;;;;;13.27;4.22;;;15.00;99.90;;;;;;4906771;29;20224;-62
2023/08/07 03:59:18;;;;;;;15.38;4.60;;;15.00;99.90;;;;;;4875073;29;20241;-62
2023/08/07 04:01:44;;;;;;;22.83;5.10;;;14.90;99.90;;;;;;4905783;29;20221;-62
2023/08/07 04:04:10;;;;;;;18.63;5.43;;;14.90;99.90;;;;;;4871618;29;20273;-61
2023/08/07 04:06:36;;;;;;;15.23;5.05;;;14.90;99.90;;;;;;4891422;29;20190;-62
2023/08/07 04:09:03;;;;;;;20.55;5.88;;;14.90;99.90;;;;;;4874788;29;20209;-62
2023/08/07 04:11:30;;;;;;;22.40;5.93;;;14.90;99.90;;;;;;4878247;29;20197;-61
2023/08/07 04:13:56;;;;;;;23.23;5.40;;;14.90;99.90;;;;;;4874625;29;20651;-61
2023/08/07 04:16:22;;;;;;;22.10;5.97;;;14.90;99.90;;;;;;4867774;29;20743;-61
2023/08/07 04:18:48;;;;;;;27.90;6.18;;;14.80;99.90;;;;;;4872714;29;20627;-59
2023/08/07 04:21:14;;;;;;;27.60;6.15;;;14.80;99.90;;;;;;4892168;29;20206;-61
2023/08/07 04:23:40;;;;;;;26.65;6.55;;;14.80;99.90;;;;;;4873866;29;20193;-60
2023/08/07 04:26:06;;;;;;;23.02;6.53;;;14.80;99.90;;;;;;4876606;29;20537;-60
2023/08/07 04:28:32;;;;;;;35.42;6.85;;;14.80;99.90;;;;;;4871408;29;20198;-61
2023/08/07 04:30:58;;;;;;;40.60;6.72;;;14.80;99.90;;;;;;4908626;29;20185;-60
2023/08/07 04:33:23;;;;;;;35.08;7.07;;;14.80;99.90;;;;;;4875073;29;20560;-62
2023/08/07 04:35:49;;;;;;;30.83;6.72;;;14.80;99.90;;;;;;4907850;29;20197;-60
2023/08/07 04:38:16;;;;;;;25.92;6.25;;;14.80;99.90;;;;;;4872391;29;20201;-59
2023/08/07 04:40:46;;;;;;;38.28;7.07;;;14.80;99.90;;;;;;4878300;29;20653;-60
2023/08/07 04:43:14;;;;;;;28.30;6.30;;;14.70;99.90;;;;;;4875657;29;20189;-61
2023/08/07 04:45:41;;;;;;;19.92;5.57;;;14.70;99.90;;;;;;4876679;29;20636;-59
2023/08/07 04:48:08;;;;;;;22.38;5.38;;;14.60;99.90;;;;;;4875807;29;20233;-61
2023/08/07 04:50:34;;;;;;;14.07;5.07;;;14.60;99.90;;;;;;4878095;29;20272;-60
2023/08/07 04:53:00;;;;;;;21.90;5.85;;;14.50;99.90;;;;;;4874298;29;20216;-60
2023/08/07 04:55:26;;;;;;;17.58;5.65;;;14.50;99.90;;;;;;4875510;29;20228;-60
2023/08/07 04:57:54;;;;;;;19.00;5.93;;;14.40;99.90;;;;;;4859428;29;20675;-53
2023/08/07 05:00:21;;;;;;;30.27;6.90;;;14.50;99.90;;;;;;4869803;29;20233;-54
2023/08/07 05:02:50;;;;;;;23.80;5.68;;;14.50;99.90;;;;;;4876463;29;20224;-54
2023/08/07 05:05:20;;;;;;;23.15;6.05;;;14.50;99.90;;;;;;4869979;29;20192;-57
2023/08/07 05:07:47;;;;;;;17.60;5.70;;;14.60;99.90;;;;;;4882004;29;20200;-56
2023/08/07 05:10:13;;;;;;;17.42;4.80;;;14.60;99.90;;;;;;4878014;29;20670;-59
2023/08/07 05:12:39;;;;;;;23.67;5.25;;;14.70;99.90;;;;;;4877592;29;20758;-58
2023/08/07 05:15:05;;;;;;;30.73;5.57;;;14.80;99.90;;;;;;4873577;29;20272;-59
2023/08/07 05:17:32;;;;;;;22.38;5.65;;;14.80;99.90;;;;;;4877732;29;20703;-61
2023/08/07 05:19:58;;;;;;;18.80;5.15;;;14.80;99.90;;;;;;4867940;29;20615;-60
2023/08/07 05:22:24;;;;;;;30.75;5.65;;;14.80;99.90;;;;;;4878478;29;20191;-58
2023/08/07 05:24:50;;;;;;;27.42;6.28;;;14.90;99.90;;;;;;4872892;29;20193;-58
2023/08/07 05:27:16;;;;;;;30.40;6.07;;;14.80;99.90;;;;;;4878259;29;20209;-61
2023/08/07 05:29:45;;;;;;;19.63;5.47;;;14.90;99.90;;;;;;4905289;29;20309;-60
2023/08/07 05:32:14;;;;;;;27.58;5.82;;;14.90;99.90;;;;;;4875186;29;20201;-62
2023/08/07 05:34:41;;;;;;;27.83;6.03;;;14.90;99.90;;;;;;4872823;29;20194;-55
2023/08/07 05:37:07;;;;;;;27.08;6.68;;;14.90;99.90;;;;;;4875935;29;20267;-61
2023/08/07 05:39:35;;;;;;;28.08;6.15;;;15.00;99.90;;;;;;4875116;29;20268;-56
2023/08/07 05:42:01;;;;;;;22.25;5.70;;;15.10;99.90;;;;;;4877536;29;20200;-60
2023/08/07 05:44:29;;;;;;;21.35;5.63;;;15.10;99.90;;;;;;4871562;29;20693;-58
2023/08/07 05:46:55;;;;;;;17.55;5.18;;;15.10;99.90;;;;;;4875566;29;20237;-64
2023/08/07 05:49:21;;;;;;;19.60;5.03;;;15.20;99.90;;;;;;4870596;29;20201;-62
2023/08/07 05:51:47;;;;;;;26.98;5.47;;;15.20;99.90;;;;;;4876000;29;20204;-60
2023/08/07 05:54:13;;;;;;;25.00;5.15;;;15.30;99.90;;;;;;4873113;29;20193;-61
2023/08/07 05:56:41;;;;;;;19.30;4.32;;;15.30;99.90;;;;;;4876437;29;20313;-59
2023/08/07 05:59:07;;;;;;;21.52;4.47;;;15.40;99.90;;;;;;4904568;29;20257;-61
2023/08/07 06:01:33;;;;;;;19.23;4.28;;;15.40;99.90;;;;;;4876124;29;20198;-59
2023/08/07 06:03:59;;;;;;;15.52;3.90;;;15.40;99.90;;;;;;4874491;29;20196;-61
2023/08/07 06:06:27;;;;;;;16.65;4.00;;;15.40;99.90;;;;;;4874503;29;20272;-62
2023/08/07 06:08:56;;;;;;;19.67;4.13;;;15.40;99.90;;;;;;4866332;29;20205;-60
2023/08/07 06:11:23;;;;;;;15.38;4.20;;;15.50;99.90;;;;;;4876267;29;20189;-60
2023/08/07 06:13:49;;;;;;;16.92;4.63;;;15.60;99.90;;;;;;4872323;29;20209;-61
2023/08/07 06:16:15;;;;;;;12.63;3.42;;;15.60;99.90;;;;;;4857275;29;20228;-61
2023/08/07 06:18:41;;;;;;;19.60;3.95;;;15.70;99.90;;;;;;4871089;29;20720;-62
2023/08/07 06:21:10;;;;;;;15.98;3.65;;;15.80;99.90;;;;;;4863364;29;20196;-59
2023/08/07 06:23:37;;;;;;;13.02;2.88;;;15.80;99.90;;;;;;4874302;29;20193;-61
2023/08/07 06:26:07;;;;;;;16.25;3.00;;;15.90;99.90;;;;;;4889859;29;20432;-61
2023/08/07 06:28:35;;;;;;;12.88;3.08;;;15.90;99.90;;;;;;4871744;29;20194;-61
2023/08/07 06:31:08;;;;;;;13.63;3.70;;;15.80;99.90;;;;;;4873994;29;20190;-61
2023/08/07 06:33:34;;;;;;;12.50;3.20;;;15.80;99.90;;;;;;4871273;29;20904;-60
2023/08/07 06:36:01;;;;;;;16.83;3.05;;;15.80;99.90;;;;;;4875244;29;20245;-62
2023/08/07 06:38:27;;;;;;;11.50;2.90;;;15.90;99.90;;;;;;4904227;29;20193;-61
2023/08/07 06:40:53;;;;;;;11.88;3.20;;;16.00;99.90;;;;;;4870798;29;20197;-61
2023/08/07 06:43:19;;;;;;;18.08;3.60;;;16.10;99.90;;;;;;4871780;29;20204;-62
2023/08/07 06:45:50;;;;;;;9.52;2.80;;;16.10;99.90;;;;;;4876208;29;20203;-61
2023/08/07 06:48:17;;;;;;;15.82;3.40;;;16.10;99.90;;;;;;4874386;29;20280;-60
2023/08/07 06:50:43;;;;;;;12.00;3.20;;;16.00;99.90;;;;;;4873556;29;20341;-61
2023/08/07 06:53:09;;;;;;;14.80;3.72;;;15.90;99.90;;;;;;4872517;29;20220;-66
2023/08/07 06:55:35;;;;;;;15.68;3.45;;;15.90;99.90;;;;;;4855849;29;20252;-63
2023/08/07 06:58:01;;;;;;;17.27;5.20;;;15.90;99.90;;;;;;4873735;29;20221;-62
2023/08/07 07:00:27;;;;;;;20.13;4.03;;;15.90;99.90;;;;;;4884388;29;20232;-61
2023/08/07 07:02:53;;;;;;;9.80;3.20;;;16.00;99.90;;;;;;4876076;29;20201;-60
2023/08/07 07:05:19;;;;;;;13.98;3.53;;;16.10;99.90;;;;;;4874756;29;20185;-61
2023/08/07 07:07:45;;;;;;;13.18;3.15;;;16.10;99.90;;;;;;4876541;29;20201;-61
2023/08/07 07:10:11;;;;;;;16.92;3.45;;;16.10;99.90;;;;;;4871588;29;20188;-61
2023/08/07 07:12:37;;;;;;;21.77;3.63;;;16.00;99.90;;;;;;4872843;29;20558;-62
2023/08/07 07:15:03;;;;;;;16.10;3.38;;;16.00;99.90;;;;;;4867688;29;20559;-61
2023/08/07 07:17:30;;;;;;;14.68;3.90;;;15.90;99.90;;;;;;4875488;29;20220;-63
2023/08/07 07:19:56;;;;;;;14.52;3.22;;;15.80;99.90;;;;;;4875629;29;20189;-60
2023/08/07 07:22:23;;;;;;;13.80;3.40;;;15.80;99.90;;;;;;4875534;29;20221;-60
2023/08/07 07:24:49;;;;;;;16.02;3.30;;;15.80;99.90;;;;;;4875299;29;20193;-61
2023/08/07 07:27:15;;;;;;;10.85;2.88;;;15.90;99.90;;;;;;4875454;29;20238;-61
2023/08/07 07:29:41;;;;;;;13.52;3.22;;;15.90;99.90;;;;;;4878074;29;20193;-61
2023/08/07 07:32:07;;;;;;;18.42;4.03;;;16.00;99.90;;;;;;4877331;29;20204;-62
2023/08/07 07:34:33;;;;;;;18.83;3.80;;;16.10;99.90;;;;;;4868692;29;20689;-61
2023/08/07 07:36:59;;;;;;;16.77;3.72;;;16.20;99.90;;;;;;4875864;29;20225;-61
2023/08/07 07:39:25;;;;;;;12.35;3.22;;;16.40;99.90;;;;;;4878555;29;20185;-61
2023/08/07 07:41:51;;;;;;;13.38;3.60;;;16.50;99.90;;;;;;4880311;29;20197;-61
2023/08/07 07:44:17;;;;;;;12.90;3.55;;;16.60;99.90;;;;;;4856535;29;20276;-60
2023/08/07 07:46:43;;;;;;;11.20;3.35;;;16.60;99.90;;;;;;4891688;29;20285;-59
2023/08/07 07:49:09;;;;;;;16.27;3.38;;;16.70;99.90;;;;;;4877154;29;20186;-59
2023/08/07 07:51:37;;;;;;;11.32;3.13;;;16.80;99.90;;;;;;4878331;29;20228;-60
2023/08/07 07:54:03;;;;;;;16.85;3.38;;;17.00;99.90;;;;;;4878198;29;20197;-63
2023/08/07 07:56:29;;;;;;;16.00;3.58;;;17.10;99.90;;;;;;4866163;29;20221;-61
2023/08/07 07:58:55;;;;;;;12.95;3.42;;;17.10;99.90;;;;;;4874541;29;20242;-61
2023/08/07 08:01:23;;;;;;;19.90;3.45;;;17.10;99.90;;;;;;4878404;29;20297;-62
2023/08/07 08:03:49;;;;;;;9.82;3.00;;;17.00;99.90;;;;;;4878028;29;20214;-62
2023/08/07 08:06:15;;;;;;;12.75;3.47;;;16.80;99.90;;;;;;4894277;29;20226;-61
2023/08/07 08:08:42;;;;;;;15.73;3.22;;;16.70;99.90;;;;;;4874272;29;20190;-62
2023/08/07 08:11:08;;;;;;;10.02;3.45;;;16.60;99.90;;;;;;4887741;29;20193;-62
2023/08/07 08:13:38;;;;;;;13.15;3.20;;;16.50;99.90;;;;;;4864916;29;20216;-63
2023/08/07 08:16:04;;;;;;;14.40;2.95;;;16.50;99.90;;;;;;4873854;29;20256;-63
2023/08/07 08:18:31;;;;;;;17.45;4.85;;;16.50;99.90;;;;;;4871118;29;20638;-62
2023/08/07 08:20:57;;;;;;;10.10;3.15;;;16.50;99.90;;;;;;4909740;29;20193;-61
2023/08/07 08:23:23;;;;;;;12.90;3.13;;;16.60;99.90;;;;;;4876371;29;20622;-62
2023/08/07 08:25:49;;;;;;;10.35;3.03;;;16.70;99.90;;;;;;4877405;29;20197;-63
2023/08/07 08:28:18;;;;;;;13.60;3.20;;;16.70;99.90;;;;;;4875085;29;20342;-61
2023/08/07 08:30:44;;;;;;;16.38;3.90;;;16.80;99.90;;;;;;4876957;29;20303;-61
2023/08/07 08:33:12;;;;;;;16.35;3.08;;;16.90;99.90;;;;;;4877404;29;20185;-61
2023/08/07 08:35:39;;;;;;;15.63;3.40;;;17.00;99.90;;;;;;4875298;29;20189;-63
2023/08/07 08:38:05;;;;;;;11.90;3.45;;;17.00;99.90;;;;;;4906962;29;20222;-61
2023/08/07 08:40:31;;;;;;;12.95;3.58;;;17.00;99.90;;;;;;4875375;29;20204;-62
2023/08/07 08:43:00;;;;;;;12.68;3.42;;;17.00;99.90;;;;;;4877128;29;20666;-61
2023/08/07 08:45:27;;;;;;;11.48;3.20;;;17.00;99.90;;;;;;4875384;29;20673;-61
2023/08/07 08:48:02;;;;;;;14.15;2.60;;;17.00;99.90;;;;;;4891561;29;20212;-60
2023/08/07 08:50:28;;;;;;;8.30;2.80;;;17.10;99.90;;;;;;4863020;29;20265;-61
2023/08/07 08:52:56;;;;;;;12.95;2.70;;;17.20;99.90;;;;;;4874676;29;20198;-61
2023/08/07 08:55:23;;;;;;;12.50;2.80;;;17.20;99.90;;;;;;4876761;29;20265;-62
2023/08/07 08:57:53;;;;;;;9.45;2.80;;;17.20;99.90;;;;;;4875027;29;20233;-62
2023/08/07 09:00:23;;;;;;;10.10;2.88;;;17.30;99.90;;;;;;4906744;29;20248;-61
2023/08/07 09:02:50;;;;;;;13.13;2.67;;;17.20;99.90;;;;;;4875481;29;20229;-61
2023/08/07 09:05:18;;;;;;;16.83;2.65;;;17.30;99.90;;;;;;4875611;29;20322;-62
2023/08/07 09:07:46;;;;;;;14.25;2.75;;;17.40;99.90;;;;;;4877136;29;20262;-60
2023/08/07 09:10:13;;;;;;;10.30;2.80;;;17.40;99.90;;;;;;4872437;29;20605;-63
2023/08/07 09:12:42;;;;;;;9.13;2.60;;;17.50;99.90;;;;;;4874966;29;20650;-61
2023/08/07 09:15:10;;;;;;;14.48;3.28;;;17.50;99.90;;;;;;4875084;29;20183;-60
2023/08/07 09:17:44;;;;;;;15.90;3.03;;;17.60;99.90;;;;;;4876508;29;20304;-60
2023/08/07 09:20:13;;;;;;;11.57;2.85;;;17.70;99.90;;;;;;4875008;29;20197;-59
2023/08/07 09:22:41;;;;;;;8.18;2.83;;;17.80;99.90;;;;;;4876916;29;20292;-61
2023/08/07 09:25:09;;;;;;;12.10;3.00;;;17.90;99.90;;;;;;4885393;29;20194;-61
2023/08/07 09:27:37;;;;;;;11.45;2.58;;;17.80;99.90;;;;;;4876050;29;20615;-61
2023/08/07 09:30:09;;;;;;;10.18;2.60;;;17.70;99.90;;;;;;4876713;29;20184;-62
2023/08/07 09:32:36;;;;;;;11.93;2.92;;;17.80;99.90;;;;;;4872584;29;20181;-62
2023/08/07 09:35:04;;;;;;;10.95;2.70;;;17.90;99.90;;;;;;4873951;29;20198;-61
2023/08/07 09:37:31;;;;;;;14.65;2.90;;;17.90;99.90;;;;;;4873637;29;20213;-62
2023/08/07 09:40:00;;;;;;;13.25;2.58;;;17.90;99.90;;;;;;4875435;29;20225;-60
2023/08/07 09:42:30;;;;;;;9.00;2.67;;;17.90;99.90;;;;;;4874006;29;20968;-60
2023/08/07 09:44:56;;;;;;;11.38;2.40;;;17.90;99.90;;;;;;4857294;29;20252;-60
2023/08/07 09:47:22;;;;;;;10.75;2.45;;;17.90;99.90;;;;;;4877723;29;20181;-60
2023/08/07 09:49:48;;;;;;;6.13;2.35;;;17.80;99.90;;;;;;4902955;29;20271;-61
2023/08/07 09:52:15;;;;;;;9.40;2.60;;;17.80;99.90;;;;;;4880220;29;20193;-60
2023/08/07 09:54:41;;;;;;;8.13;2.80;;;18.00;99.90;;;;;;4873969;29;20193;-61
2023/08/07 09:57:08;;;;;;;8.32;1.90;;;18.10;99.90;;;;;;4879954;29;20221;-61
2023/08/07 09:59:34;;;;;;;13.43;2.58;;;18.10;99.90;;;;;;4901801;29;20219;-62
2023/08/07 10:02:02;;;;;;;12.55;2.83;;;18.10;99.90;;;;;;4875735;29;20296;-61
2023/08/07 10:04:29;;;;;;;8.45;2.35;;;18.10;99.90;;;;;;4869734;29;20584;-60
2023/08/07 10:06:55;;;;;;;12.38;2.40;;;18.00;99.90;;;;;;4890628;29;20200;-60
2023/08/07 10:09:22;;;;;;;11.48;2.83;;;17.90;99.90;;;;;;4872388;29;20197;-60
2023/08/07 10:11:49;;;;;;;12.52;2.90;;;17.90;99.90;;;;;;4872354;29;20212;-64
2023/08/07 10:14:16;;;;;;;13.23;3.30;;;17.80;99.90;;;;;;4873212;29;20185;-59
2023/08/07 10:16:43;;;;;;;11.40;3.13;;;17.90;99.90;;;;;;4877536;29;20764;-61
2023/08/07 10:19:10;;;;;;;12.40;2.97;;;18.00;99.90;;;;;;4877575;29;20276;-60
2023/08/07 10:21:38;;;;;;;12.15;2.75;;;18.10;99.90;;;;;;4878983;29;20193;-60
2023/08/07 10:24:05;;;;;;;9.38;2.50;;;18.20;99.90;;;;;;4874549;29;20196;-60
2023/08/07 10:26:37;;;;;;;10.70;2.75;;;18.20;99.90;;;;;;4873001;29;20223;-61
2023/08/07 10:29:07;;;;;;;13.40;3.22;;;18.20;99.90;;;;;;4890541;29;20216;-61
2023/08/07 10:31:34;;;;;;;15.02;2.70;;;18.30;99.90;;;;;;4887063;29;20257;-60
2023/08/07 10:34:01;;;;;;;18.70;2.97;;;18.40;99.90;;;;;;4868901;29;20209;-62
2023/08/07 10:36:35;;;;;;;8.77;2.47;;;18.50;99.90;;;;;;4873170;29;20224;-60
2023/08/07 10:39:11;;;;;;;8.73;2.00;;;18.60;99.90;;;;;;4870853;29;20191;-60
2023/08/07 10:41:45;;;;;;;8.07;2.47;;;18.50;99.90;;;;;;4875474;29;20276;-61
2023/08/07 10:44:20;;;;;;;12.15;2.53;;;18.50;99.90;;;;;;4872065;29;20666;-61
2023/08/07 10:46:57;;;;;;;6.80;2.20;;;18.60;99.90;;;;;;4878454;29;20192;-62
2023/08/07 10:49:40;;;;;;;9.05;2.25;;;18.50;99.90;;;;;;4888126;29;20189;-62
2023/08/07 10:52:13;;;;;;;5.32;1.70;;;18.30;99.90;;;;;;4869744;29;20192;-60
2023/08/07 10:54:42;;;;;;;4.43;1.80;;;18.30;99.90;;;;;;4874209;29;20285;-60
2023/08/07 10:57:13;;;;;;;6.53;1.80;;;18.20;99.50;;;;;;4844721;29;20613;-61
2023/08/07 11:00:05;;;;;;;6.95;2.15;;;18.20;99.50;;;;;;4873365;29;20193;-60
2023/08/07 11:02:36;;;;;;;10.10;2.03;;;18.20;99.80;;;;;;4889400;29;20266;-61
2023/08/07 11:05:03;;;;;;;6.90;2.05;;;18.30;99.00;;;;;;4872506;29;20181;-61
2023/08/07 11:07:30;;;;;;;11.57;2.40;;;18.40;99.50;;;;;;4876965;29;20224;-61
2023/08/07 11:09:59;;;;;;;8.05;2.00;;;18.50;99.70;;;;;;4873866;29;20189;-61
2023/08/07 11:12:28;;;;;;;12.10;2.30;;;18.60;99.60;;;;;;4873418;29;20284;-60
2023/08/07 11:14:57;;;;;;;9.10;2.35;;;18.70;99.90;;;;;;4876537;29;20197;-60
2023/08/07 11:17:28;;;;;;;11.23;2.50;;;18.70;99.90;;;;;;4881589;29;20217;-60
2023/08/07 11:19:56;;;;;;;9.20;2.47;;;18.70;99.90;;;;;;4875048;29;20197;-61
2023/08/07 11:22:24;;;;;;;12.73;2.85;;;18.70;99.90;;;;;;4882614;29;20205;-61
2023/08/07 11:24:53;;;;;;;12.68;3.00;;;18.60;99.90;;;;;;4874714;29;20489;-61
2023/08/07 11:27:23;;;;;;;9.35;2.50;;;18.50;99.90;;;;;;4889032;29;20505;-61
2023/08/07 11:29:51;;;;;;;15.48;3.63;;;18.20;99.90;;;;;;4876243;29;20591;-62
2023/08/07 11:32:21;;;;;;;10.55;2.75;;;17.80;99.90;;;;;;4861614;29;20204;-61
2023/08/07 11:34:51;;;;;;;11.30;2.55;;;17.50;99.90;;;;;;4886666;29;20206;-60
2023/08/07 11:37:20;;;;;;;7.95;2.38;;;17.30;99.90;;;;;;4881092;29;20297;-60
2023/08/07 11:39:46;;;;;;;11.05;2.90;;;17.30;99.90;;;;;;4876201;29;20197;-62
2023/08/07 11:42:14;;;;;;;10.55;2.58;;;17.30;99.90;;;;;;4874240;29;20820;-59
2023/08/07 11:44:44;;;;;;;7.53;2.10;;;17.30;99.90;;;;;;4873500;29;20203;-60
2023/08/07 11:47:14;;;;;;;7.05;2.30;;;17.40;99.90;;;;;;4889852;29;20304;-61
2023/08/07 11:49:40;;;;;;;7.10;1.77;;;17.50;99.90;;;;;;4873609;29;20189;-60
2023/08/07 11:52:09;;;;;;;4.43;1.80;;;17.60;99.90;;;;;;4876761;29;20197;-62
2023/08/07 11:54:36;;;;;;;5.53;1.80;;;17.60;99.90;;;;;;4879094;29;20197;-61
2023/08/07 11:57:15;;;;;;;2.50;1.27;;;17.60;99.90;;;;;;4873563;29;20221;-61
2023/08/07 11:59:41;;;;;;;7.50;1.63;;;17.60;99.90;;;;;;4870823;29;20669;-61
2023/08/07 12:02:14;;;;;;;7.28;2.22;;;17.70;99.90;;;;;;4891441;29;20204;-59
2023/08/07 12:04:40;;;;;;;7.82;2.13;;;17.80;99.90;;;;;;4872858;29;20194;-60
2023/08/07 12:07:06;;;;;;;5.05;2.33;;;17.90;99.90;;;;;;4887970;29;20185;-61
2023/08/07 12:09:33;;;;;;;6.18;2.03;;;18.00;99.90;;;;;;4875024;29;20220;-61
2023/08/07 12:11:59;;;;;;;8.63;2.40;;;18.00;99.90;;;;;;4907424;29;20288;-61
2023/08/07 12:14:32;;;;;;;7.38;2.00;;;17.80;99.90;;;;;;4872390;29;20717;-62
2023/08/07 12:16:57;;;;;;;4.63;1.90;;;17.60;99.90;;;;;;4887478;29;20221;-61
2023/08/07 12:19:23;;;;;;;5.53;2.10;;;17.50;99.90;;;;;;4874887;29;20280;-60
2023/08/07 12:21:49;;;;;;;2.85;1.73;;;17.60;99.90;;;;;;4881489;29;20196;-59
2023/08/07 12:24:17;;;;;;;6.40;1.98;;;17.60;99.90;;;;;;4875654;29;20196;-62
2023/08/07 12:26:46;;;;;;;8.10;1.95;;;17.70;99.90;;;;;;4874169;29;20193;-60
2023/08/07 12:29:12;;;;;;;7.97;2.70;;;17.80;99.90;;;;;;4874686;29;20267;-60
2023/08/07 12:31:38;;;;;;;6.72;2.42;;;17.90;99.90;;;;;;4872627;29;20249;-63
2023/08/07 12:34:04;;;;;;;11.68;2.50;;;18.00;99.90;;;;;;4873688;29;20198;-61
2023/08/07 12:36:30;;;;;;;10.63;2.63;;;18.00;99.90;;;;;;4876728;29;20257;-61
2023/08/07 12:38:56;;;;;;;9.70;2.58;;;18.00;99.90;;;;;;4872263;29;20543;-61